Time;durP1;ratioP1;P1;durP2;ratioP2;P2;SDS_P1;SDS_P2;PMS_P1;PMS_P2;Temp;Humidity;BMP_temperature;BMP_pressure;BME280_temperature;BME280_humidity;BME280_pressure;Samples;Min_cycle;Max_cycle;Signal;HPM_P1;HPM_P2
2024/02/22 00:00:28;;;;;;;1.53;1.33;;;11.40;56.20;;;12.76;44.30;96745.56;5031248;28;20041;-58
2024/02/22 00:02:55;;;;;;;2.00;1.58;;;11.40;55.90;;;12.80;44.51;96744.16;5031088;28;20494;-58
2024/02/22 00:05:23;;;;;;;3.30;1.40;;;11.40;56.10;;;12.79;44.32;96744.34;5031280;28;20522;-58
2024/02/22 00:07:51;;;;;;;3.63;1.88;;;11.30;56.20;;;12.78;44.14;96734.69;5012891;28;20052;-58
2024/02/22 00:10:19;;;;;;;3.05;1.60;;;11.30;55.90;;;12.76;44.36;96731.41;5031041;28;20041;-58
2024/02/22 00:12:46;;;;;;;2.20;1.40;;;11.30;56.50;;;12.71;44.64;96723.97;5031183;28;20052;-58
2024/02/22 00:15:14;;;;;;;4.35;1.60;;;11.30;57.20;;;12.70;44.98;96717.00;5030925;28;20053;-57
2024/02/22 00:17:42;;;;;;;3.28;1.50;;;11.20;57.00;;;12.73;44.75;96716.56;5030725;28;20033;-58
2024/02/22 00:20:12;;;;;;;2.83;1.80;;;11.20;57.30;;;12.69;44.97;96715.31;5030729;28;20049;-58
2024/02/22 00:22:40;;;;;;;2.47;1.60;;;11.20;57.70;;;12.68;45.16;96704.84;4997556;28;20510;-58
2024/02/22 00:25:08;;;;;;;1.93;1.60;;;11.20;57.40;;;12.67;45.10;96700.53;5030726;28;20502;-59
2024/02/22 00:27:36;;;;;;;2.95;1.48;;;11.20;57.80;;;12.65;45.35;96699.91;5030592;28;20055;-58
2024/02/22 00:30:12;;;;;;;3.53;1.60;;;11.20;58.30;;;12.64;45.54;96695.56;5030785;28;20498;-59
2024/02/22 00:32:43;;;;;;;2.53;1.43;;;11.10;58.10;;;12.58;45.78;96675.81;5030669;28;20037;-58
2024/02/22 00:35:11;;;;;;;1.87;1.40;;;11.10;58.60;;;12.51;46.03;96680.31;5030909;28;20041;-58
2024/02/22 00:37:38;;;;;;;2.30;1.73;;;11.00;59.50;;;12.42;46.48;96666.28;5029930;28;20041;-58
2024/02/22 00:40:09;;;;;;;2.20;1.50;;;11.00;60.10;;;12.39;46.92;96664.84;5030580;28;20045;-58
2024/02/22 00:42:36;;;;;;;2.73;1.73;;;10.90;60.10;;;12.39;46.71;96654.19;5031107;28;20414;-58
2024/02/22 00:45:05;;;;;;;2.63;1.90;;;10.90;59.90;;;12.39;46.41;96643.50;5013115;28;20045;-59
2024/02/22 00:47:32;;;;;;;5.07;1.70;;;10.90;59.70;;;12.34;46.67;96634.44;5030012;28;20052;-58
2024/02/22 00:50:00;;;;;;;3.20;1.77;;;10.90;60.80;;;12.26;47.36;96618.59;5030596;28;20553;-58
2024/02/22 00:52:29;;;;;;;2.40;1.77;;;10.80;60.70;;;12.21;47.57;96622.69;5012648;28;20046;-58
2024/02/22 00:54:56;;;;;;;2.23;1.50;;;10.80;61.50;;;12.19;47.61;96608.72;5013327;28;20053;-59
2024/02/22 00:57:24;;;;;;;1.80;1.53;;;10.80;61.10;;;12.15;47.60;96601.28;5030311;28;20514;-58
2024/02/22 00:59:52;;;;;;;2.47;1.70;;;10.70;61.80;;;12.16;47.72;96597.59;5030342;28;20050;-59
2024/02/22 01:02:21;;;;;;;3.10;1.63;;;10.70;61.90;;;12.12;47.89;96588.34;5030491;28;20049;-58
2024/02/22 01:04:48;;;;;;;1.97;1.50;;;10.70;61.70;;;12.09;48.07;96596.72;5030737;28;20042;-58
2024/02/22 01:07:16;;;;;;;2.77;1.77;;;10.70;61.60;;;12.02;48.38;96572.69;5030791;28;20049;-58
2024/02/22 01:09:44;;;;;;;2.80;2.47;;;10.70;62.60;;;12.04;48.35;96578.66;5030322;28;20049;-58
2024/02/22 01:12:12;;;;;;;2.17;1.70;;;10.70;62.40;;;12.07;48.12;96567.56;5030141;28;20045;-59
2024/02/22 01:14:39;;;;;;;3.87;2.10;;;10.70;62.10;;;11.99;48.77;96562.41;5030361;28;20419;-58
2024/02/22 01:17:07;;;;;;;3.23;1.90;;;10.60;62.50;;;11.97;48.89;96573.25;5012421;28;20507;-58
2024/02/22 01:19:35;;;;;;;3.27;2.50;;;10.70;62.60;;;11.93;48.85;96548.00;5012857;28;20141;-58
2024/02/22 01:22:02;;;;;;;3.83;2.87;;;10.60;62.80;;;11.93;48.90;96555.19;5030346;28;20414;-58
2024/02/22 01:24:31;;;;;;;5.50;3.07;;;10.60;62.90;;;11.90;49.06;96552.91;5030361;28;20049;-58
2024/02/22 01:26:59;;;;;;;3.13;2.57;;;10.60;64.30;;;11.89;49.08;96552.09;5029975;28;20046;-58
2024/02/22 01:29:27;;;;;;;2.90;2.20;;;10.60;64.30;;;11.92;49.47;96542.88;5030046;28;20048;-59
2024/02/22 01:31:54;;;;;;;2.23;1.70;;;10.60;63.90;;;11.93;49.53;96525.84;5030203;28;20050;-58
2024/02/22 01:34:22;;;;;;;2.30;1.70;;;10.50;64.00;;;11.92;49.75;96532.19;5028627;28;20045;-59
2024/02/22 01:36:50;;;;;;;2.17;1.57;;;10.60;64.60;;;11.92;49.75;96521.53;5011799;28;20508;-58
2024/02/22 01:39:18;;;;;;;3.03;1.70;;;10.50;65.00;;;11.92;49.85;96522.38;5030290;28;20057;-63
2024/02/22 01:41:46;;;;;;;2.30;1.83;;;10.50;64.40;;;11.93;50.02;96509.84;5032203;28;20513;-60
2024/02/22 01:44:13;;;;;;;2.00;1.53;;;10.60;65.50;;;11.92;49.94;96510.84;5033649;28;20052;-60
2024/02/22 01:46:41;;;;;;;2.43;1.63;;;10.60;65.20;;;11.89;50.61;96521.91;5033365;28;20046;-58
2024/02/22 01:49:09;;;;;;;3.13;1.70;;;10.60;65.50;;;11.84;50.58;96503.81;5033623;28;20044;-59
2024/02/22 01:51:37;;;;;;;3.33;1.67;;;10.50;66.50;;;11.80;50.71;96492.72;5033619;28;20052;-59
2024/02/22 01:54:04;;;;;;;1.80;1.60;;;10.50;66.80;;;11.77;51.03;96495.78;5015603;28;20056;-59
2024/02/22 01:56:32;;;;;;;3.40;1.60;;;10.40;67.10;;;11.77;51.44;96495.78;5015710;28;20071;-59
2024/02/22 01:59:00;;;;;;;2.00;1.53;;;10.40;68.00;;;11.81;51.56;96489.03;5033569;28;20533;-58
2024/02/22 02:01:28;;;;;;;1.73;1.43;;;10.50;67.70;;;11.82;51.83;96480.03;5015630;28;20053;-58
2024/02/22 02:03:57;;;;;;;3.27;1.53;;;10.50;68.60;;;11.72;52.49;96458.22;5033680;28;20422;-58
2024/02/22 02:06:25;;;;;;;2.57;1.73;;;10.40;69.10;;;11.80;52.11;96460.72;5015421;28;20045;-58
2024/02/22 02:08:55;;;;;;;2.30;1.63;;;10.40;69.10;;;11.83;52.34;96455.00;5033279;28;20463;-58
2024/02/22 02:11:23;;;;;;;2.27;1.70;;;10.40;69.00;;;11.83;52.16;96455.00;5033313;28;20510;-58
2024/02/22 02:13:50;;;;;;;2.60;1.50;;;10.50;70.10;;;11.85;52.39;96444.13;5015830;28;20052;-58
2024/02/22 02:16:18;;;;;;;1.90;1.30;;;10.40;69.60;;;11.91;52.34;96448.69;5033108;28;20045;-58
2024/02/22 02:18:46;;;;;;;1.60;1.13;;;10.50;70.30;;;11.90;52.20;96448.91;5032622;28;20512;-58
2024/02/22 02:21:23;;;;;;;2.67;1.23;;;10.50;70.00;;;11.92;52.67;96438.84;5032938;28;20042;-58
2024/02/22 02:24:33;;;;;;;1.90;1.30;;;10.50;70.40;;;11.89;52.93;96436.56;5033151;28;20438;-58
2024/02/22 02:27:01;;;;;;;1.77;1.33;;;10.50;70.70;;;11.91;52.42;96424.69;5028852;28;20056;-58
2024/02/22 02:29:29;;;;;;;1.60;1.20;;;10.50;71.10;;;11.87;53.23;96425.28;5022095;28;20449;-58
2024/02/22 02:31:56;;;;;;;1.17;1.03;;;10.50;72.10;;;11.89;53.18;96425.91;5033005;28;20509;-58
2024/02/22 02:34:24;;;;;;;2.23;1.67;;;10.40;71.60;;;11.88;53.43;96427.72;5032553;28;20418;-59
2024/02/22 02:36:52;;;;;;;1.90;1.30;;;10.50;72.60;;;11.85;53.84;96412.13;5032337;28;20057;-58
2024/02/22 02:39:19;;;;;;;1.83;1.33;;;10.40;72.30;;;11.86;53.42;96436.94;5032783;28;20056;-58
2024/02/22 02:41:47;;;;;;;1.57;1.23;;;10.40;72.70;;;11.78;53.92;96413.94;5031890;28;20052;-58
2024/02/22 02:44:15;;;;;;;2.10;1.40;;;10.40;72.60;;;11.79;53.88;96412.94;5014122;28;20060;-58
2024/02/22 02:46:43;;;;;;;2.40;1.23;;;10.40;72.90;;;11.64;54.73;96402.41;5032228;28;20045;-58
2024/02/22 02:49:10;;;;;;;3.03;2.33;;;10.30;73.30;;;11.72;54.12;96404.09;5032391;28;20044;-59
2024/02/22 02:51:38;;;;;;;1.73;1.00;;;10.30;73.60;;;11.77;54.13;96412.31;5032348;28;20041;-59
2024/02/22 02:54:05;;;;;;;1.93;1.20;;;10.30;73.90;;;11.73;54.71;96395.03;5031786;28;20041;-59
2024/02/22 02:56:33;;;;;;;1.40;1.07;;;10.30;73.70;;;11.69;54.66;96391.97;5031800;28;20041;-59
2024/02/22 02:59:01;;;;;;;1.00;0.90;;;10.30;74.30;;;11.74;54.85;96399.38;5032414;28;20058;-59
2024/02/22 03:01:28;;;;;;;1.80;1.30;;;10.30;74.80;;;11.70;54.77;96382.13;5032342;28;20490;-59
2024/02/22 03:03:56;;;;;;;2.30;1.10;;;10.30;74.80;;;11.72;55.19;96393.41;5032349;28;20050;-60
2024/02/22 03:06:24;;;;;;;1.53;1.40;;;10.20;75.30;;;11.73;54.97;96373.72;5031838;28;20045;-60
2024/02/22 03:08:52;;;;;;;1.67;1.10;;;10.30;75.90;;;11.77;54.91;96369.66;5031951;28;20041;-59
2024/02/22 03:11:19;;;;;;;1.43;0.87;;;10.30;75.70;;;11.75;54.85;96371.69;5032097;28;20046;-59
2024/02/22 03:13:47;;;;;;;0.70;0.70;;;10.30;76.40;;;11.71;55.44;96365.09;5014227;28;20042;-59
2024/02/22 03:16:15;;;;;;;1.03;0.90;;;10.20;77.00;;;11.72;55.71;96366.75;5032199;28;20060;-60
2024/02/22 03:18:42;;;;;;;1.30;1.03;;;10.20;77.90;;;11.72;55.79;96348.09;5031595;28;20041;-60
2024/02/22 03:21:10;;;;;;;0.90;0.80;;;10.20;77.70;;;11.69;55.59;96344.00;5031838;28;20045;-60
2024/02/22 03:23:38;;;;;;;1.23;0.90;;;10.20;78.20;;;11.66;56.14;96343.56;5031730;28;20045;-60
2024/02/22 03:26:06;;;;;;;0.80;0.80;;;10.20;78.10;;;11.60;56.33;96332.66;5014516;28;20056;-60
2024/02/22 03:28:34;;;;;;;2.27;0.90;;;10.20;78.50;;;11.55;56.67;96337.75;5031104;28;20053;-60
2024/02/22 03:31:02;;;;;;;1.07;0.90;;;10.10;78.80;;;11.52;56.88;96332.84;5031945;28;20498;-59
2024/02/22 03:33:31;;;;;;;0.80;0.80;;;10.10;78.70;;;11.54;56.37;96330.81;5031581;28;20045;-60
2024/02/22 03:36:00;;;;;;;1.03;0.90;;;10.10;79.30;;;11.52;56.73;96319.53;5014379;28;20049;-60
2024/02/22 03:38:27;;;;;;;2.40;0.80;;;10.10;79.40;;;11.51;57.12;96325.03;5030199;28;20057;-60
2024/02/22 03:40:55;;;;;;;1.10;0.80;;;10.10;79.40;;;11.47;57.66;96310.47;5031603;28;20064;-60
2024/02/22 03:43:23;;;;;;;1.37;0.90;;;10.00;79.90;;;11.50;56.96;96324.22;5031490;28;20710;-60
2024/02/22 03:45:51;;;;;;;1.77;0.97;;;10.10;79.80;;;11.46;57.63;96325.66;5031136;28;20053;-59
2024/02/22 03:48:18;;;;;;;0.80;0.70;;;10.10;80.00;;;11.39;57.64;96314.94;5030744;28;20045;-60
2024/02/22 03:50:46;;;;;;;0.60;0.60;;;10.00;80.30;;;11.39;58.25;96306.97;5031523;28;20045;-60
2024/02/22 03:53:15;;;;;;;1.43;0.77;;;10.00;81.00;;;11.39;58.24;96316.81;5031420;28;20054;-60
2024/02/22 03:55:43;;;;;;;0.97;0.80;;;10.00;81.10;;;11.43;58.04;96310.06;5006097;28;20365;-60
2024/02/22 03:58:11;;;;;;;1.17;1.07;;;10.00;81.30;;;11.49;57.76;96300.44;5030982;28;20038;-60
2024/02/22 04:00:38;;;;;;;1.90;0.80;;;10.00;81.30;;;11.49;57.78;96306.59;5031253;28;20045;-59
2024/02/22 04:03:06;;;;;;;1.23;0.97;;;10.00;81.60;;;11.46;57.98;96303.50;5031299;28;20045;-60
2024/02/22 04:05:34;;;;;;;0.80;0.60;;;10.00;81.70;;;11.50;58.56;96316.25;5030674;28;20498;-59
2024/02/22 04:08:02;;;;;;;1.43;0.83;;;10.00;82.00;;;11.47;58.74;96287.31;5030661;28;20068;-60
2024/02/22 04:10:30;;;;;;;0.93;0.70;;;10.00;82.30;;;11.37;59.01;96317.00;5031138;28;20053;-60
2024/02/22 04:12:58;;;;;;;1.03;1.00;;;9.90;82.20;;;11.36;58.60;96293.22;5031074;28;20046;-60
2024/02/22 04:15:25;;;;;;;0.70;0.70;;;9.90;82.20;;;11.32;59.37;96289.31;5030534;28;20045;-60
2024/02/22 04:17:53;;;;;;;0.87;0.70;;;9.90;82.20;;;11.32;58.94;96297.28;5030335;28;20111;-60
2024/02/22 04:20:21;;;;;;;1.03;0.93;;;9.90;81.90;;;11.33;59.33;96293.63;5030997;28;20053;-59
2024/02/22 04:22:49;;;;;;;0.80;0.80;;;10.00;82.10;;;11.35;59.17;96291.56;5031064;28;20518;-60
2024/02/22 04:25:17;;;;;;;1.13;1.00;;;10.00;82.10;;;11.36;58.84;96295.88;5031078;28;20449;-60
2024/02/22 04:27:45;;;;;;;0.70;0.60;;;10.00;81.50;;;11.36;59.07;96287.88;5022571;28;20057;-61
2024/02/22 04:30:13;;;;;;;0.80;0.80;;;10.00;81.70;;;11.32;59.12;96290.16;5030928;28;20046;-60
2024/02/22 04:32:41;;;;;;;0.67;0.67;;;10.00;82.10;;;11.39;59.06;96287.50;5030868;28;20113;-61
2024/02/22 04:35:10;;;;;;;0.83;0.70;;;10.10;82.50;;;11.42;59.33;96285.25;5028673;28;20049;-61
2024/02/22 04:37:38;;;;;;;1.00;0.73;;;10.10;82.50;;;11.45;59.17;96283.22;5029485;28;20079;-60
2024/02/22 04:40:08;;;;;;;0.60;0.60;;;10.10;82.80;;;11.48;59.05;96277.50;5013619;28;20080;-61
2024/02/22 04:42:35;;;;;;;0.93;0.80;;;10.10;82.50;;;11.48;59.27;96275.66;5030646;28;20503;-61
2024/02/22 04:45:04;;;;;;;0.83;0.80;;;10.10;82.30;;;11.45;59.33;96277.88;5030921;28;20053;-61
2024/02/22 04:47:36;;;;;;;0.90;0.70;;;10.10;82.40;;;11.47;59.05;96260.66;5030291;28;20045;-61
2024/02/22 04:50:07;;;;;;;0.93;0.80;;;10.10;82.00;;;11.47;59.41;96262.50;5030875;28;20034;-60
2024/02/22 04:52:34;;;;;;;0.70;0.70;;;10.10;82.20;;;11.45;59.52;96267.22;5013129;28;20038;-60
2024/02/22 04:55:03;;;;;;;0.90;0.70;;;10.10;82.20;;;11.47;59.29;96251.84;5030784;28;20046;-60
2024/02/22 04:57:31;;;;;;;1.63;0.70;;;10.10;82.30;;;11.51;59.27;96256.56;5028338;28;20443;-61
2024/02/22 04:59:59;;;;;;;0.83;0.77;;;10.10;82.10;;;11.58;59.05;96251.28;5030690;28;20038;-60
2024/02/22 05:02:27;;;;;;;1.20;0.80;;;10.10;81.90;;;11.57;59.28;96245.13;5030449;28;20518;-60
2024/02/22 05:04:55;;;;;;;0.70;0.60;;;10.20;82.60;;;11.63;59.21;96259.47;5012899;28;20046;-61
2024/02/22 05:07:22;;;;;;;0.90;0.70;;;10.20;82.70;;;11.58;59.19;96248.59;5029331;28;20045;-60
2024/02/22 05:09:50;;;;;;;0.70;0.60;;;10.20;83.10;;;11.56;59.84;96248.81;5030539;28;20049;-60
2024/02/22 05:12:18;;;;;;;1.73;0.70;;;10.20;83.50;;;11.62;59.71;96237.31;5012357;28;20057;-60
2024/02/22 05:14:45;;;;;;;1.00;0.90;;;10.20;83.50;;;11.57;59.77;96228.28;5030201;28;20050;-60
2024/02/22 05:17:14;;;;;;;0.97;0.70;;;10.10;84.20;;;11.51;60.19;96229.91;5032686;28;20046;-60
2024/02/22 05:19:41;;;;;;;1.00;0.90;;;10.10;84.70;;;11.54;59.89;96226.84;5034224;28;20060;-60
2024/02/22 05:22:09;;;;;;;2.30;0.80;;;10.10;85.50;;;11.53;60.17;96216.41;5034257;28;20052;-60
2024/02/22 05:24:37;;;;;;;1.00;0.80;;;10.10;85.30;;;11.57;60.00;96229.13;5034151;28;20072;-60
2024/02/22 05:27:04;;;;;;;0.83;0.73;;;10.10;85.20;;;11.60;59.93;96212.72;5033945;28;20049;-60
2024/02/22 05:29:32;;;;;;;0.77;0.73;;;10.20;84.70;;;11.61;59.99;96195.72;5033662;28;20046;-60
2024/02/22 05:32:00;;;;;;;0.83;0.70;;;10.10;85.00;;;11.61;59.92;96198.38;5033759;28;20046;-60
2024/02/22 05:34:28;;;;;;;1.27;0.93;;;10.20;84.70;;;11.55;60.20;96212.50;5033842;28;20041;-60
2024/02/22 05:36:56;;;;;;;1.10;0.87;;;10.20;85.10;;;11.49;60.81;96194.66;5033639;28;20056;-60
2024/02/22 05:39:23;;;;;;;0.80;0.80;;;10.10;85.30;;;11.47;60.90;96180.72;4998859;28;20510;-60
2024/02/22 05:41:51;;;;;;;1.23;0.60;;;10.10;86.10;;;11.53;60.46;96195.06;5033445;28;20046;-61
2024/02/22 05:44:19;;;;;;;1.50;0.90;;;10.10;86.00;;;11.56;60.83;96174.16;5033766;28;20038;-60
2024/02/22 05:46:47;;;;;;;1.17;1.00;;;10.10;86.50;;;11.57;61.01;96177.66;5015803;28;20045;-61
2024/02/22 05:49:16;;;;;;;0.73;0.73;;;10.20;86.20;;;11.47;61.35;96170.06;5033452;28;20049;-61
2024/02/22 05:51:43;;;;;;;0.90;0.80;;;10.10;87.10;;;11.54;60.92;96162.09;5033657;28;20045;-61
2024/02/22 05:54:11;;;;;;;1.10;0.90;;;10.10;87.20;;;11.53;61.46;96157.75;5033794;28;20045;-61
2024/02/22 05:56:38;;;;;;;1.10;0.80;;;10.10;87.50;;;11.51;61.24;96157.97;5033178;28;20045;-61
2024/02/22 05:59:08;;;;;;;0.70;0.70;;;10.10;87.50;;;11.51;61.47;96167.81;5040213;28;20422;-61
2024/02/22 06:01:35;;;;;;;0.80;0.80;;;10.10;88.00;;;11.53;61.20;96152.44;5033417;28;20038;-60
2024/02/22 06:04:03;;;;;;;0.70;0.70;;;10.10;87.60;;;11.53;61.56;96155.09;5033916;28;20041;-60
2024/02/22 06:06:31;;;;;;;0.80;0.80;;;10.10;87.30;;;11.56;61.77;96146.72;5015470;28;20458;-61
2024/02/22 06:08:58;;;;;;;0.97;0.67;;;10.10;87.60;;;11.51;61.56;96146.50;5033023;28;20064;-60
2024/02/22 06:11:26;;;;;;;0.50;0.50;;;10.10;87.50;;;11.52;61.64;96146.28;5033136;28;20064;-60
2024/02/22 06:13:55;;;;;;;0.60;0.60;;;10.10;87.40;;;11.51;62.07;96138.50;5025626;28;20041;-61
2024/02/22 06:16:23;;;;;;;0.70;0.70;;;10.20;87.70;;;11.58;61.34;96137.47;5033686;28;20049;-60
2024/02/22 06:18:51;;;;;;;0.97;0.80;;;10.20;87.70;;;11.65;61.09;96136.66;5033180;28;20513;-60
2024/02/22 06:21:18;;;;;;;0.87;0.87;;;10.20;87.70;;;11.61;61.50;96138.91;5033400;28;20037;-60
2024/02/22 06:23:46;;;;;;;0.70;0.70;;;10.20;87.60;;;11.63;61.32;96136.84;5033418;28;20049;-60
2024/02/22 06:26:14;;;;;;;1.37;1.07;;;10.20;88.30;;;11.64;61.91;96143.84;5033071;28;20052;-60
2024/02/22 06:28:41;;;;;;;1.20;1.10;;;10.20;88.80;;;11.64;61.99;96135.84;5031734;28;20060;-61
2024/02/22 06:31:09;;;;;;;0.80;0.80;;;10.10;89.20;;;11.58;61.67;96128.66;5032767;28;20490;-60
2024/02/22 06:33:39;;;;;;;2.07;1.20;;;10.00;89.70;;;11.54;61.80;96133.59;5032694;28;20041;-60
2024/02/22 06:36:09;;;;;;;1.30;1.00;;;10.00;90.10;;;11.54;62.27;96116.78;5032662;28;20050;-62
2024/02/22 06:38:45;;;;;;;1.23;1.00;;;10.00;90.10;;;11.58;62.04;96115.34;5031324;28;20047;-62
2024/02/22 06:41:18;;;;;;;1.80;0.80;;;10.00;89.80;;;11.58;61.98;96120.66;5015201;28;20044;-60
2024/02/22 06:43:46;;;;;;;1.10;1.00;;;10.00;89.90;;;11.59;62.10;96117.81;5032281;28;20041;-58
2024/02/22 06:46:14;;;;;;;1.50;0.80;;;10.00;90.20;;;11.57;61.82;96114.53;5032403;28;20038;-60
2024/02/22 06:48:42;;;;;;;1.57;0.90;;;10.00;90.40;;;11.61;62.05;96112.25;5014504;28;20050;-62
2024/02/22 06:51:10;;;;;;;1.10;1.00;;;10.00;90.30;;;11.59;62.24;96114.28;5032602;28;20101;-61
2024/02/22 06:53:37;;;;;;;1.40;1.00;;;10.00;90.80;;;11.59;62.43;96101.81;5032408;28;20046;-63
2024/02/22 06:56:05;;;;;;;1.67;1.13;;;10.00;90.40;;;11.63;62.16;96107.53;5032469;28;20490;-61
2024/02/22 06:58:33;;;;;;;1.70;1.03;;;10.00;90.70;;;11.58;62.30;96102.81;5014479;28;20042;-61
2024/02/22 07:01:01;;;;;;;1.13;0.80;;;10.00;91.30;;;11.60;62.31;96099.97;5031995;28;20045;-62
2024/02/22 07:03:28;;;;;;;1.40;1.03;;;10.00;91.10;;;11.60;62.03;96099.97;5032262;28;20041;-64
2024/02/22 07:05:56;;;;;;;1.67;1.10;;;10.10;91.20;;;11.61;62.46;96110.41;5032309;28;20046;-63
2024/02/22 07:08:24;;;;;;;0.87;0.87;;;10.00;91.30;;;11.61;62.29;96101.59;5031826;28;20060;-61
2024/02/22 07:10:51;;;;;;;2.87;1.10;;;10.00;91.40;;;11.61;62.32;96097.09;5031532;28;20072;-60
2024/02/22 07:13:19;;;;;;;1.50;1.00;;;10.10;91.20;;;11.59;62.65;96100.97;5032083;28;20034;-60
2024/02/22 07:15:47;;;;;;;1.67;1.50;;;10.00;91.40;;;11.59;62.79;96092.97;5032132;28;20041;-60
2024/02/22 07:18:14;;;;;;;2.23;1.03;;;10.10;91.40;;;11.58;62.69;96096.69;5031501;28;20100;-62
2024/02/22 07:20:42;;;;;;;3.80;1.10;;;10.10;92.00;;;11.55;63.25;96099.75;5032108;28;20048;-61
2024/02/22 07:23:10;;;;;;;1.83;1.10;;;10.00;92.10;;;11.55;63.13;96092.56;5032475;28;20052;-63
2024/02/22 07:25:38;;;;;;;1.30;0.87;;;10.00;92.50;;;11.54;62.96;96093.59;5031665;28;20042;-60
2024/02/22 07:28:10;;;;;;;1.50;1.03;;;10.00;92.30;;;11.52;63.08;96102.84;5012932;28;20052;-63
2024/02/22 07:30:38;;;;;;;1.57;1.47;;;10.00;92.60;;;11.54;63.20;96103.44;5031923;28;20049;-61
2024/02/22 07:33:06;;;;;;;1.93;1.00;;;10.00;92.80;;;11.52;63.21;96085.00;5031308;28;20041;-61
2024/02/22 07:35:33;;;;;;;1.67;0.87;;;10.00;93.20;;;11.53;63.11;96083.13;5030383;28;20045;-61
2024/02/22 07:38:01;;;;;;;1.53;1.23;;;10.00;93.30;;;11.51;63.60;96080.66;5028372;28;20419;-61
2024/02/22 07:40:29;;;;;;;1.27;0.80;;;10.00;93.40;;;11.50;63.46;96078.25;5013819;28;20414;-60
2024/02/22 07:42:56;;;;;;;1.27;1.10;;;10.00;93.30;;;11.50;63.76;96079.06;5030683;28;20046;-64
2024/02/22 07:45:28;;;;;;;1.53;1.00;;;10.00;93.40;;;11.45;63.94;96070.84;5026224;28;20049;-64
2024/02/22 07:47:56;;;;;;;1.27;0.90;;;9.90;93.90;;;11.46;64.39;96069.00;5014066;28;20057;-63
2024/02/22 07:50:26;;;;;;;1.23;0.90;;;9.90;94.20;;;11.48;64.05;96070.44;5031407;28;20425;-62
2024/02/22 07:52:54;;;;;;;1.07;1.00;;;9.90;94.10;;;11.55;63.70;96062.44;5014173;28;20045;-62
2024/02/22 07:55:22;;;;;;;1.77;0.90;;;10.00;93.90;;;11.56;63.79;96056.91;5031667;28;20048;-61
2024/02/22 07:57:49;;;;;;;1.50;1.20;;;10.10;93.80;;;11.55;64.03;96059.78;5030989;28;20046;-60
2024/02/22 08:00:17;;;;;;;1.77;1.07;;;10.00;93.90;;;11.62;63.77;96063.25;5031427;28;20502;-60
2024/02/22 08:02:45;;;;;;;2.73;1.03;;;10.10;93.40;;;11.67;63.71;96062.63;5031649;28;20052;-60
2024/02/22 08:05:13;;;;;;;1.60;1.10;;;10.10;93.70;;;11.65;63.56;96060.19;4997924;28;20529;-60
2024/02/22 08:07:41;;;;;;;1.47;1.30;;;10.10;93.50;;;11.66;63.70;96051.16;5030594;28;20041;-60
2024/02/22 08:10:09;;;;;;;2.47;1.27;;;10.10;93.20;;;11.63;63.92;96057.72;5023305;28;20037;-60
2024/02/22 08:12:36;;;;;;;2.70;1.00;;;10.20;93.20;;;11.65;63.69;96056.69;5031082;28;20037;-60
2024/02/22 08:15:07;;;;;;;1.80;1.50;;;10.20;93.00;;;11.62;64.17;96058.75;5030903;28;20045;-60
2024/02/22 08:17:38;;;;;;;1.70;1.37;;;10.20;93.50;;;11.67;63.84;96047.47;5030864;28;20037;-61
2024/02/22 08:20:07;;;;;;;1.50;1.30;;;10.10;93.20;;;11.66;63.79;96045.81;5030964;28;20045;-61
2024/02/22 08:22:36;;;;;;;1.63;1.20;;;10.10;93.30;;;11.67;63.84;96039.47;5030996;28;20052;-62
2024/02/22 08:25:04;;;;;;;2.23;1.40;;;10.20;93.40;;;11.68;64.19;96032.28;5013760;28;20064;-61
2024/02/22 08:27:32;;;;;;;2.47;1.73;;;10.10;94.00;;;11.69;63.90;96040.09;5030301;28;20048;-62
2024/02/22 08:30:00;;;;;;;3.40;1.77;;;10.10;93.80;;;11.70;63.82;96027.56;5030573;28;20052;-61
2024/02/22 08:32:28;;;;;;;3.37;1.63;;;10.20;93.50;;;11.74;63.87;96015.47;5037126;28;20542;-61
2024/02/22 08:34:58;;;;;;;2.93;1.70;;;10.20;93.90;;;11.75;63.80;96023.25;5030623;28;20052;-62
2024/02/22 08:37:26;;;;;;;3.90;1.87;;;10.20;93.40;;;11.76;63.90;96013.41;5030264;28;20097;-62
2024/02/22 08:39:54;;;;;;;2.70;1.87;;;10.20;93.40;;;11.73;63.59;96021.81;5029884;28;20076;-61
2024/02/22 08:42:21;;;;;;;2.50;2.30;;;10.20;93.80;;;11.75;63.62;96022.44;5030880;28;20049;-62
2024/02/22 08:44:49;;;;;;;3.20;1.83;;;10.20;94.00;;;11.76;63.76;96019.53;5030533;28;20052;-61
2024/02/22 08:47:17;;;;;;;3.60;1.90;;;10.20;93.70;;;11.77;63.90;96023.06;5030315;28;20045;-61
2024/02/22 08:49:45;;;;;;;3.47;2.00;;;10.10;94.50;;;11.79;63.91;96021.81;5030555;28;20423;-61
2024/02/22 08:52:13;;;;;;;3.47;1.70;;;10.20;94.10;;;11.78;63.98;96012.16;5033616;28;20042;-61
2024/02/22 08:54:42;;;;;;;2.93;1.97;;;10.20;93.90;;;11.79;63.89;96016.47;5034672;28;20048;-62
2024/02/22 08:57:10;;;;;;;3.53;1.87;;;10.30;94.20;;;11.81;64.00;96013.59;5029927;28;20434;-61
2024/02/22 08:59:37;;;;;;;18.13;8.03;;;10.30;93.70;;;11.88;64.02;96010.91;5030059;28;20145;-61
2024/02/22 09:02:05;;;;;;;5.60;2.93;;;10.30;94.00;;;11.88;63.76;95995.72;5024384;28;21024;-61
2024/02/22 09:04:33;;;;;;;2.10;1.80;;;10.30;93.90;;;11.88;64.17;96006.41;5027167;28;20041;-61
2024/02/22 09:07:01;;;;;;;2.97;2.17;;;10.40;93.60;;;11.89;64.29;95991.22;5025753;28;20037;-62
2024/02/22 09:09:29;;;;;;;5.17;1.83;;;10.40;93.40;;;11.94;64.05;95988.78;5028326;28;20406;-61
2024/02/22 09:11:57;;;;;;;3.20;1.80;;;10.50;93.40;;;11.95;64.04;95991.22;5027954;28;20045;-61
2024/02/22 09:14:25;;;;;;;3.03;1.87;;;10.40;93.20;;;11.90;64.02;95975.03;5027480;28;20041;-61
2024/02/22 09:16:54;;;;;;;3.63;2.20;;;10.40;93.10;;;11.96;63.83;95965.38;5027173;28;20499;-61
2024/02/22 09:19:25;;;;;;;3.03;1.40;;;10.50;93.30;;;11.97;64.22;95973.16;5029414;28;20315;-61
2024/02/22 09:21:59;;;;;;;3.23;1.80;;;10.50;93.10;;;11.96;64.27;95976.03;5027798;28;20053;-61
2024/02/22 09:24:28;;;;;;;2.22;1.20;;;10.50;93.40;;;11.95;64.07;95966.41;5029308;28;20045;-61
2024/02/22 09:26:56;;;;;;;9.40;5.03;;;10.50;93.30;;;11.99;64.30;95962.28;5011150;28;20061;-61
2024/02/22 09:29:26;;;;;;;2.87;2.07;;;10.50;93.50;;;12.07;63.95;95953.25;5029053;28;20410;-60
2024/02/22 09:31:55;;;;;;;3.70;2.10;;;10.50;93.00;;;12.00;64.38;95951.44;5025086;28;20050;-62
2024/02/22 09:34:24;;;;;;;3.30;2.53;;;10.50;93.30;;;12.05;64.41;95948.13;5029405;28;20061;-60
2024/02/22 09:36:51;;;;;;;2.20;1.60;;;10.60;93.60;;;12.09;64.09;95943.19;5026226;28;20518;-61
2024/02/22 09:39:20;;;;;;;3.17;2.20;;;10.60;94.00;;;12.08;64.23;95946.84;5028767;28;20041;-60
2024/02/22 09:41:47;;;;;;;3.50;1.83;;;10.60;93.30;;;12.11;64.37;95951.78;5025176;28;20498;-61
2024/02/22 09:44:15;;;;;;;3.50;1.70;;;10.70;93.30;;;12.15;64.47;95955.66;5025289;28;20049;-61
2024/02/22 09:46:54;;;;;;;7.23;5.53;;;10.70;93.50;;;12.20;64.20;95955.84;5010490;28;20447;-61
2024/02/22 09:49:23;;;;;;;2.20;1.20;;;10.80;93.40;;;12.24;64.02;95950.91;5028304;28;20053;-60
2024/02/22 09:51:53;;;;;;;3.67;3.20;;;10.80;92.60;;;12.31;63.79;95938.34;5023420;28;20053;-61
2024/02/22 09:54:22;;;;;;;3.37;2.80;;;10.90;92.60;;;12.30;64.21;95939.38;5010449;28;20494;-60
2024/02/22 09:56:50;;;;;;;10.17;8.03;;;10.80;92.60;;;12.31;63.96;95933.00;5027437;28;20536;-61
2024/02/22 09:59:18;;;;;;;3.03;2.07;;;10.90;92.50;;;12.34;64.13;95936.06;5028580;28;20045;-61
2024/02/22 10:01:46;;;;;;;3.55;2.40;;;10.80;92.70;;;12.35;64.26;95928.91;5010683;28;20045;-61
2024/02/22 10:04:19;;;;;;;3.70;2.83;;;10.90;92.90;;;12.32;64.12;95927.47;5033503;28;20063;-60
2024/02/22 10:06:47;;;;;;;1.33;1.20;;;10.80;92.70;;;12.40;64.08;95937.06;5033324;28;20041;-61
2024/02/22 10:09:16;;;;;;;1.73;1.30;;;10.90;92.40;;;12.35;64.03;95936.91;5033373;28;20772;-61
2024/02/22 10:11:45;;;;;;;1.30;1.10;;;10.90;92.30;;;12.40;63.79;95945.88;5009113;28;20037;-61
2024/02/22 10:14:14;;;;;;;1.40;1.13;;;10.90;91.90;;;12.38;64.08;95928.44;5028451;28;20045;-61
2024/02/22 10:16:44;;;;;;;0.80;0.80;;;10.90;91.60;;;12.44;63.92;95932.13;5031114;28;20037;-61
2024/02/22 10:19:14;;;;;;;1.25;1.00;;;11.00;91.70;;;12.47;63.98;95923.69;5031153;28;20491;-61
2024/02/22 10:21:45;;;;;;;1.30;1.17;;;11.00;91.30;;;12.47;63.75;95921.03;5014692;28;20049;-61
2024/02/22 10:24:13;;;;;;;1.97;0.90;;;11.00;91.90;;;12.46;63.82;95906.03;5031762;28;20056;-61